createdAt,value
2018-07-28T00:00:54.240Z,4.33
2018-07-28T00:03:23.457Z,4.83
2018-07-28T00:05:52.644Z,4.60
2018-07-28T00:08:21.707Z,4.40
2018-07-28T00:10:50.807Z,4.37
2018-07-28T00:13:21.054Z,4.03
2018-07-28T00:15:50.257Z,4.70
2018-07-28T00:18:19.315Z,3.80
2018-07-28T00:20:48.379Z,4.60
2018-07-28T00:23:17.424Z,4.67
2018-07-28T00:25:51.668Z,4.97
2018-07-28T00:28:20.717Z,4.30
2018-07-28T00:30:49.759Z,4.75
2018-07-28T00:33:18.885Z,4.70
2018-07-28T00:35:48.041Z,4.05
2018-07-28T00:38:17.198Z,4.00
2018-07-28T00:40:46.345Z,4.20
2018-07-28T00:43:16.144Z,4.10
2018-07-28T00:45:45.263Z,3.73
2018-07-28T00:48:14.484Z,4.05
2018-07-28T00:50:44.480Z,3.90
2018-07-28T00:53:13.588Z,4.10
2018-07-28T00:55:42.729Z,4.08
2018-07-28T00:58:11.859Z,4.00
2018-07-28T01:00:41.057Z,3.73
2018-07-28T01:03:10.986Z,3.87
2018-07-28T01:05:41.099Z,3.70
2018-07-28T01:08:10.317Z,4.07
2018-07-28T01:10:40.619Z,4.37
2018-07-28T01:13:10.861Z,4.03
2018-07-28T01:15:39.986Z,5.47
2018-07-28T01:18:09.144Z,3.80
2018-07-28T01:20:38.645Z,4.12
2018-07-28T01:23:07.630Z,4.05
2018-07-28T01:25:36.894Z,4.10
2018-07-28T01:28:06.093Z,3.72
2018-07-28T01:30:35.203Z,3.85
2018-07-28T01:33:04.336Z,3.75
2018-07-28T01:35:33.442Z,4.10
2018-07-28T01:38:02.555Z,4.10
2018-07-28T01:40:31.652Z,3.90
2018-07-28T01:43:00.852Z,3.80
2018-07-28T01:45:31.815Z,3.73
2018-07-28T01:48:00.897Z,3.83
2018-07-28T01:50:30.044Z,3.90
2018-07-28T01:53:00.056Z,4.37
2018-07-28T01:55:28.990Z,3.53
2018-07-28T01:57:58.328Z,3.80
2018-07-28T02:00:27.408Z,4.00
2018-07-28T02:02:56.567Z,4.57
2018-07-28T02:05:25.683Z,4.17
2018-07-28T02:07:54.474Z,4.13
2018-07-28T02:10:23.551Z,4.40
2018-07-28T02:12:52.644Z,3.95
2018-07-28T02:15:21.707Z,5.00
2018-07-28T02:17:51.071Z,4.55
2018-07-28T02:20:21.864Z,4.93
2018-07-28T02:22:51.319Z,4.85
2018-07-28T02:25:20.553Z,4.80
2018-07-28T02:27:49.789Z,9.48
2018-07-28T02:30:19.042Z,5.25
2018-07-28T02:32:48.115Z,5.40
2018-07-28T02:35:17.280Z,5.83
2018-07-28T02:37:46.360Z,4.90
2018-07-28T02:40:15.454Z,5.27
2018-07-28T02:42:44.727Z,5.90
2018-07-28T02:45:13.900Z,5.60
2018-07-28T02:47:43.086Z,5.43
2018-07-28T02:50:12.348Z,5.15
2018-07-28T02:52:41.811Z,5.47
2018-07-28T02:55:11.261Z,5.45
2018-07-28T02:57:40.545Z,5.07
2018-07-28T03:00:10.551Z,5.60
2018-07-28T03:02:39.827Z,5.40
2018-07-28T03:05:09.365Z,5.60
2018-07-28T03:07:39.233Z,5.57
2018-07-28T03:10:09.114Z,4.80
2018-07-28T03:12:39.565Z,5.37
2018-07-28T03:15:30.765Z,5.62
2018-07-28T03:18:01.707Z,5.28
2018-07-28T03:20:31.593Z,5.80
2018-07-28T03:23:01.587Z,5.50
2018-07-28T03:25:30.907Z,5.90
2018-07-28T03:28:00.108Z,5.87
2018-07-28T03:30:29.966Z,5.13
2018-07-28T03:32:59.191Z,5.97
2018-07-28T03:35:28.511Z,5.97
2018-07-28T03:37:57.766Z,5.30
2018-07-28T03:40:27.131Z,5.72
2018-07-28T03:42:56.581Z,5.60
2018-07-28T03:45:25.982Z,5.27
2018-07-28T03:47:56.716Z,6.57
2018-07-28T03:50:28.011Z,6.27
2018-07-28T03:52:57.462Z,6.17
2018-07-28T03:55:26.623Z,5.83
2018-07-28T03:57:55.944Z,5.80
2018-07-28T04:00:25.339Z,5.97
2018-07-28T04:02:54.624Z,5.73
2018-07-28T04:05:24.044Z,5.83
2018-07-28T04:07:53.387Z,5.95
2018-07-28T04:10:22.740Z,5.90
2018-07-28T04:12:54.468Z,5.70
2018-07-28T04:15:25.164Z,6.10
2018-07-28T04:17:55.546Z,5.95
2018-07-28T04:20:27.164Z,6.10
2018-07-28T04:22:56.547Z,5.47
2018-07-28T04:25:26.691Z,5.90
2018-07-28T04:27:55.980Z,6.43
2018-07-28T04:30:26.726Z,6.10
2018-07-28T04:32:56.337Z,5.97
2018-07-28T04:35:26.380Z,5.50
2018-07-28T04:37:55.701Z,5.40
2018-07-28T04:40:25.823Z,5.65
2018-07-28T04:42:55.390Z,5.27
2018-07-28T04:45:25.191Z,6.67
2018-07-28T04:47:57.064Z,6.37
2018-07-28T04:50:26.327Z,5.77
2018-07-28T04:52:55.937Z,5.58
2018-07-28T04:55:26.018Z,5.90
2018-07-28T04:57:55.839Z,5.20
2018-07-28T05:00:24.980Z,6.53
2018-07-28T05:02:55.094Z,5.90
2018-07-28T05:05:25.050Z,5.60
2018-07-28T05:07:55.113Z,6.00
2018-07-28T05:10:24.742Z,5.60
2018-07-28T05:12:54.238Z,5.63
2018-07-28T05:15:23.620Z,5.83
2018-07-28T05:17:53.089Z,5.93
2018-07-28T05:20:22.890Z,6.70
2018-07-28T05:22:52.384Z,6.00
2018-07-28T05:25:21.904Z,6.70
2018-07-28T05:27:51.438Z,6.15
2018-07-28T05:30:20.684Z,5.80
2018-07-28T05:32:54.045Z,6.03
2018-07-28T05:35:23.236Z,6.00
2018-07-28T05:37:52.734Z,5.93
2018-07-28T05:40:21.961Z,6.17
2018-07-28T05:42:51.128Z,6.07
2018-07-28T05:45:20.349Z,5.97
2018-07-28T05:47:50.155Z,5.33
2018-07-28T05:50:19.187Z,6.13
2018-07-28T05:52:48.738Z,5.47
2018-07-28T05:55:19.879Z,5.50
2018-07-28T05:57:49.271Z,4.92
2018-07-28T06:00:18.713Z,5.70
2018-07-28T06:02:48.000Z,5.75
2018-07-28T06:05:17.233Z,5.93
2018-07-28T06:07:47.113Z,6.50
2018-07-28T06:10:16.691Z,6.03
2018-07-28T06:12:46.344Z,5.85
2018-07-28T06:15:16.016Z,6.03
2018-07-28T06:17:45.536Z,7.00
2018-07-28T06:20:15.275Z,6.43
2018-07-28T06:22:47.973Z,6.17
2018-07-28T06:25:21.617Z,5.70
2018-07-28T06:27:53.092Z,6.37
2018-07-28T06:30:23.213Z,6.77
2018-07-28T06:32:53.596Z,7.87
2018-07-28T06:35:25.286Z,8.20
2018-07-28T06:37:55.603Z,8.07
2018-07-28T06:40:25.033Z,7.03
2018-07-28T06:42:54.724Z,7.37
2018-07-28T06:45:24.372Z,7.40
2018-07-28T06:47:54.675Z,8.35
2018-07-28T06:50:24.609Z,7.83
2018-07-28T06:52:54.899Z,7.72
2018-07-28T06:55:25.374Z,8.30
2018-07-28T06:57:55.543Z,8.20
2018-07-28T07:00:25.789Z,8.00
2018-07-28T07:02:56.678Z,8.33
2018-07-28T07:05:27.080Z,8.58
2018-07-28T07:07:56.808Z,9.40
2018-07-28T07:10:26.554Z,8.68
2018-07-28T07:12:56.659Z,8.70
2018-07-28T07:15:26.465Z,8.70
2018-07-28T07:17:56.624Z,7.70
2018-07-28T07:20:26.693Z,8.23
2018-07-28T07:23:00.555Z,7.53
2018-07-28T07:25:30.574Z,7.00
2018-07-28T07:27:59.858Z,7.37
2018-07-28T07:30:29.549Z,7.17
2018-07-28T07:33:02.244Z,7.43
2018-07-28T07:35:32.993Z,7.07
2018-07-28T07:38:04.310Z,7.20
2018-07-28T07:40:34.622Z,8.00
2018-07-28T07:43:04.461Z,7.57
2018-07-28T07:45:34.811Z,8.20
2018-07-28T07:48:04.409Z,7.40
2018-07-28T07:50:38.528Z,8.80
2018-07-28T07:53:08.269Z,8.47
2018-07-28T07:55:37.672Z,10.00
2018-07-28T07:58:07.088Z,8.00
2018-07-28T08:00:36.924Z,8.40
2018-07-28T08:03:06.744Z,8.17
2018-07-28T08:05:36.484Z,8.23
2018-07-28T08:08:06.173Z,8.27
2018-07-28T08:10:35.883Z,8.30
2018-07-28T08:13:06.534Z,8.28
2018-07-28T08:15:36.498Z,7.77
2018-07-28T08:18:05.941Z,8.90
2018-07-28T08:20:35.380Z,8.67
2018-07-28T08:23:04.968Z,8.53
2018-07-28T08:25:35.409Z,7.95
2018-07-28T08:28:13.274Z,8.33
2018-07-28T08:30:46.466Z,8.75
2018-07-28T08:33:16.646Z,8.35
2018-07-28T08:35:46.412Z,8.98
2018-07-28T08:38:16.194Z,8.40
2018-07-28T08:40:47.008Z,8.43
2018-07-28T08:43:17.346Z,7.72
2018-07-28T08:45:50.280Z,8.08
2018-07-28T08:48:23.575Z,8.00
2018-07-28T08:50:59.995Z,7.15
2018-07-28T08:53:32.507Z,8.40
2018-07-28T08:56:04.575Z,8.65
2018-07-28T08:58:35.936Z,8.63
2018-07-28T09:01:05.784Z,9.10
2018-07-28T09:03:35.738Z,9.15
2018-07-28T09:06:05.525Z,8.15
2018-07-28T09:08:35.203Z,8.25
2018-07-28T09:11:06.782Z,7.93
2018-07-28T09:13:36.946Z,7.33
2018-07-28T09:16:06.884Z,8.40
2018-07-28T09:18:36.859Z,8.08
2018-07-28T09:21:06.787Z,8.00
2018-07-28T09:23:36.790Z,8.47
2018-07-28T09:26:06.982Z,8.90
2018-07-28T09:28:37.666Z,8.08
2018-07-28T09:31:07.192Z,8.50
2018-07-28T09:33:36.847Z,7.57
2018-07-28T09:36:06.632Z,7.87
2018-07-28T09:38:36.061Z,7.62
2018-07-28T09:41:05.995Z,7.83
2018-07-28T09:43:38.109Z,7.53
2018-07-28T09:46:08.161Z,7.40
2018-07-28T09:48:37.811Z,7.00
2018-07-28T09:51:07.709Z,7.05
2018-07-28T09:53:38.373Z,8.50
2018-07-28T09:56:08.334Z,7.40
2018-07-28T09:58:38.613Z,7.20
2018-07-28T10:01:14.013Z,7.60
2018-07-28T10:03:47.610Z,8.38
2018-07-28T10:06:21.293Z,9.15
2018-07-28T10:08:55.283Z,8.15
2018-07-28T10:11:26.278Z,7.67
2018-07-28T10:13:59.993Z,7.60
2018-07-28T10:16:32.094Z,6.92
2018-07-28T10:19:06.051Z,6.65
2018-07-28T10:21:41.916Z,6.80
2018-07-28T10:24:13.601Z,6.47
2018-07-28T10:26:45.449Z,5.35
2018-07-28T10:29:20.560Z,4.92
2018-07-28T10:31:50.255Z,4.30
2018-07-28T10:34:21.930Z,4.40
2018-07-28T10:36:52.264Z,4.43
2018-07-28T10:39:22.145Z,4.05
2018-07-28T10:41:52.707Z,3.87
2018-07-28T10:44:26.469Z,4.40
2018-07-28T10:47:06.110Z,4.90
2018-07-28T10:49:47.958Z,4.00
2018-07-28T10:52:18.659Z,6.62
2018-07-28T10:54:58.871Z,4.70
2018-07-28T10:57:43.424Z,4.92
2018-07-28T11:03:48.118Z,5.00
2018-07-28T11:06:24.307Z,5.37
2018-07-28T11:09:06.435Z,5.25
2018-07-28T11:11:44.715Z,5.40
2018-07-28T11:14:18.903Z,5.87
2018-07-28T11:16:51.845Z,5.53
2018-07-28T11:19:25.154Z,5.97
2018-07-28T11:22:00.099Z,5.60
2018-07-28T11:24:31.314Z,7.62
2018-07-28T11:27:04.513Z,6.73
2018-07-28T11:29:39.501Z,5.70
2018-07-28T11:32:29.472Z,5.97
2018-07-28T11:35:10.234Z,6.15
2018-07-28T11:38:09.033Z,6.20
2018-07-28T11:40:58.477Z,7.03
2018-07-28T11:43:46.195Z,6.55
2018-07-28T11:46:17.629Z,6.83
2018-07-28T11:48:51.465Z,6.90
2018-07-28T11:51:23.434Z,5.60
2018-07-28T11:54:03.718Z,5.60
2018-07-28T11:56:36.060Z,7.16
2018-07-28T11:59:07.436Z,5.78
2018-07-28T12:01:39.622Z,5.58
2018-07-28T12:04:09.600Z,5.95
2018-07-28T12:06:42.031Z,6.35
2018-07-28T12:09:15.914Z,5.30
2018-07-28T12:11:46.685Z,5.47
2018-07-28T12:14:20.338Z,4.97
2018-07-28T12:16:55.227Z,5.97
2018-07-28T12:19:27.317Z,4.70
2018-07-28T12:21:57.588Z,4.72
2018-07-28T12:24:27.859Z,4.40
2018-07-28T12:27:00.443Z,5.23
2018-07-28T12:29:31.380Z,4.90
2018-07-28T12:32:03.455Z,4.80
2018-07-28T12:34:34.626Z,4.63
2018-07-28T12:37:05.317Z,4.67
2018-07-28T12:39:35.193Z,4.50
2018-07-28T12:42:07.453Z,4.62
2018-07-28T12:44:38.067Z,4.35
2018-07-28T12:47:09.423Z,4.05
2018-07-28T12:49:39.470Z,4.95
2018-07-28T12:52:10.805Z,4.70
2018-07-28T12:54:40.888Z,4.65
2018-07-28T12:57:10.313Z,4.30
2018-07-28T12:59:40.175Z,4.35
2018-07-28T13:02:11.135Z,4.80
2018-07-28T13:04:41.194Z,4.93
2018-07-28T13:07:11.025Z,4.40
2018-07-28T13:09:40.541Z,5.10
2018-07-28T13:12:10.458Z,5.53
2018-07-28T13:14:40.279Z,5.22
2018-07-28T13:17:11.352Z,5.15
2018-07-28T13:19:42.793Z,5.00
2018-07-28T13:22:13.177Z,4.92
2018-07-28T13:24:44.658Z,4.60
2018-07-28T13:27:15.069Z,4.50
2018-07-28T13:29:50.983Z,4.73
2018-07-28T13:32:21.419Z,4.95
2018-07-28T13:34:52.502Z,4.50
2018-07-28T13:37:22.409Z,5.30
2018-07-28T13:39:54.243Z,4.83
2018-07-28T13:42:24.303Z,4.90
2018-07-28T13:44:56.697Z,4.40
2018-07-28T13:47:27.120Z,4.26
2018-07-28T13:49:57.138Z,4.07
2018-07-28T13:52:28.044Z,4.47
2018-07-28T13:54:58.460Z,3.77
2018-07-28T13:57:28.989Z,4.10
2018-07-28T14:00:00.133Z,3.90
2018-07-28T14:02:29.949Z,4.58
2018-07-28T14:05:00.142Z,4.47
2018-07-28T14:07:34.092Z,4.93
2018-07-28T14:10:05.759Z,4.83
2018-07-28T14:12:45.323Z,4.97
2018-07-28T14:15:15.107Z,5.10
2018-07-28T14:17:49.029Z,5.37
2018-07-28T14:20:19.932Z,4.45
2018-07-28T14:22:53.091Z,5.17
2018-07-28T14:25:22.832Z,5.15
2018-07-28T14:27:52.561Z,4.50
2018-07-28T14:30:23.051Z,3.85
2018-07-28T14:32:57.865Z,4.08
2018-07-28T14:35:29.480Z,4.33
2018-07-28T14:38:00.276Z,3.83
2018-07-28T14:40:31.176Z,4.20
2018-07-28T14:43:01.200Z,4.65
2018-07-28T14:45:31.823Z,3.47
2018-07-28T14:48:09.652Z,3.60
2018-07-28T14:50:39.454Z,3.45
2018-07-28T14:53:13.798Z,3.33
2018-07-28T14:55:45.437Z,3.57
2018-07-28T14:58:20.267Z,3.17
2018-07-28T15:00:51.808Z,3.55
2018-07-28T15:03:23.748Z,3.60
2018-07-28T15:05:54.208Z,3.00
2018-07-28T15:08:24.233Z,3.00
2018-07-28T15:10:57.215Z,2.90
2018-07-28T15:13:29.603Z,2.98
2018-07-28T15:15:59.698Z,3.05
2018-07-28T15:18:29.833Z,3.15
2018-07-28T15:21:00.791Z,2.72
2018-07-28T15:23:30.954Z,2.80
2018-07-28T15:26:02.562Z,2.72
2018-07-28T15:28:33.397Z,2.80
2018-07-28T15:31:03.347Z,2.90
2018-07-28T15:33:33.301Z,3.13
2018-07-28T15:36:05.507Z,2.87
2018-07-28T15:38:35.742Z,3.30
2018-07-28T15:41:06.800Z,3.27
2018-07-28T15:43:38.822Z,3.30
2018-07-28T15:46:10.625Z,3.52
2018-07-28T15:48:47.577Z,3.40
2018-07-28T15:51:17.225Z,2.90
2018-07-28T15:53:47.349Z,2.80
2018-07-28T15:56:17.221Z,3.27
2018-07-28T15:58:46.775Z,2.77
2018-07-28T16:01:16.482Z,3.30
2018-07-28T16:03:47.167Z,2.75
2018-07-28T16:06:18.234Z,3.00
2018-07-28T16:08:48.166Z,3.10
2018-07-28T16:11:18.003Z,3.25
2018-07-28T16:13:47.596Z,2.87
2018-07-28T16:16:17.356Z,2.77
2018-07-28T16:18:46.805Z,2.77
2018-07-28T16:21:16.640Z,2.98
2018-07-28T16:23:46.203Z,2.67
2018-07-28T16:26:18.375Z,2.93
2018-07-28T16:28:48.801Z,3.17
2018-07-28T16:31:18.721Z,2.80
2018-07-28T16:33:48.288Z,2.77
2018-07-28T16:36:17.968Z,2.80
2018-07-28T16:38:54.176Z,3.10
2018-07-28T16:41:24.238Z,2.95
2018-07-28T16:43:53.907Z,2.27
2018-07-28T16:46:23.883Z,2.60
2018-07-28T16:48:54.563Z,2.60
2018-07-28T16:51:45.113Z,3.00
2018-07-28T16:54:14.827Z,2.20
2018-07-28T16:56:45.396Z,2.20
2018-07-28T16:59:15.210Z,2.35
2018-07-28T17:01:45.394Z,2.80
2018-07-28T17:04:15.388Z,2.57
2018-07-28T17:06:45.727Z,3.10
2018-07-28T17:09:15.529Z,2.83
2018-07-28T17:11:48.936Z,2.20
2018-07-28T17:14:18.803Z,2.00
2018-07-28T17:16:49.940Z,2.05
2018-07-28T17:19:20.466Z,2.00
2018-07-28T17:21:56.889Z,2.00
2018-07-28T17:35:40.763Z,2.30
2018-07-28T17:38:14.852Z,2.13
2018-07-28T17:41:04.392Z,1.97
2018-07-28T17:43:46.012Z,2.23
2018-07-28T17:46:18.557Z,2.30
2018-07-28T17:48:52.470Z,2.87
2018-07-28T17:51:21.814Z,2.10
2018-07-28T17:53:53.500Z,2.23
2018-07-28T17:56:24.961Z,2.43
2018-07-28T17:58:55.961Z,2.30
2018-07-28T18:01:31.479Z,2.37
2018-07-28T18:04:05.207Z,2.60
2018-07-28T18:06:52.013Z,2.37
2018-07-28T18:09:40.938Z,2.20
2018-07-28T18:15:14.573Z,2.00
2018-07-28T18:17:51.796Z,2.63
2018-07-28T18:20:24.760Z,2.30
2018-07-28T18:23:05.073Z,2.25
2018-07-28T18:25:39.908Z,2.40
2018-07-28T18:28:20.226Z,1.95
2018-07-28T18:34:09.358Z,2.37
2018-07-28T18:36:48.654Z,2.57
2018-07-28T18:39:23.939Z,2.60
2018-07-28T18:42:01.742Z,2.37
2018-07-28T18:45:10.884Z,2.30
2018-07-28T18:50:34.184Z,2.30
2018-07-28T18:53:22.997Z,2.80
2018-07-28T18:56:06.728Z,2.40
2018-07-28T18:58:50.999Z,2.43
2018-07-28T19:01:36.380Z,2.50
2018-07-28T19:04:14.428Z,2.20
2018-07-28T19:06:57.474Z,2.60
2018-07-28T19:12:53.375Z,2.53
2018-07-28T19:17:06.062Z,2.75
2018-07-28T19:19:41.886Z,2.40
2018-07-28T19:28:00.828Z,2.25
2018-07-28T19:44:43.050Z,2.62
2018-07-28T19:47:41.102Z,2.30
2018-07-28T19:50:34.103Z,2.20
2018-07-28T19:53:11.980Z,2.30
2018-07-28T19:55:46.055Z,2.22
2018-07-28T19:58:20.970Z,2.03
2018-07-28T20:03:38.545Z,2.45
2018-07-28T20:06:27.506Z,2.40
2018-07-28T20:08:57.329Z,2.37
2018-07-28T20:11:27.789Z,2.50
2018-07-28T20:13:57.475Z,2.50
2018-07-28T20:16:31.920Z,1.90
2018-07-28T20:19:03.274Z,2.50
2018-07-28T20:21:33.633Z,2.53
2018-07-28T20:24:04.167Z,2.20
2018-07-28T20:26:33.966Z,2.10
2018-07-28T20:29:05.243Z,2.20
2018-07-28T20:31:38.302Z,2.00
2018-07-28T20:34:09.234Z,2.05
2018-07-28T20:36:39.307Z,1.87
2018-07-28T20:39:12.947Z,2.17
2018-07-28T20:41:42.564Z,1.85
2018-07-28T20:44:13.527Z,2.10
2018-07-28T20:46:43.980Z,2.15
2018-07-28T20:49:13.929Z,2.10
2018-07-28T20:51:51.963Z,2.25
2018-07-28T20:54:25.109Z,2.67
2018-07-28T20:56:58.775Z,2.07
2018-07-28T20:59:28.741Z,2.40
2018-07-28T21:01:58.243Z,2.20
2018-07-28T21:04:27.922Z,1.87
2018-07-28T21:06:57.758Z,1.77
2018-07-28T21:09:27.110Z,2.50
2018-07-28T21:11:57.359Z,2.10
2018-07-28T21:14:26.835Z,2.25
2018-07-28T21:16:56.172Z,2.17
2018-07-28T21:19:25.548Z,2.60
2018-07-28T21:21:56.444Z,1.87
2018-07-28T21:24:25.577Z,2.30
2018-07-28T21:26:54.732Z,2.10
2018-07-28T21:29:33.404Z,1.70
2018-07-28T21:32:02.783Z,2.80
2018-07-28T21:34:32.340Z,2.80
2018-07-28T21:37:01.595Z,1.90
2018-07-28T21:39:31.049Z,1.97
2018-07-28T21:42:01.605Z,1.73
2018-07-28T21:44:32.839Z,1.80
2018-07-28T21:47:02.126Z,2.17
2018-07-28T21:49:33.513Z,2.10
2018-07-28T21:52:02.848Z,1.97
2018-07-28T21:54:32.348Z,1.93
2018-07-28T21:57:02.238Z,2.00
2018-07-28T21:59:32.649Z,1.37
2018-07-28T22:02:02.341Z,1.63
2018-07-28T22:04:38.613Z,1.80
2018-07-28T22:07:08.320Z,2.30
2018-07-28T22:09:37.546Z,2.57
2018-07-28T22:12:06.749Z,1.80
2018-07-28T22:14:36.679Z,2.30
2018-07-28T22:17:06.057Z,1.90
2018-07-28T22:19:35.269Z,2.03
2018-07-28T22:22:04.471Z,2.17
2018-07-28T22:24:34.371Z,2.00
2018-07-28T22:27:03.634Z,2.03
2018-07-28T22:29:32.793Z,2.10
2018-07-28T22:32:02.017Z,2.33
2018-07-28T22:34:31.439Z,2.30
2018-07-28T22:37:00.866Z,2.03
2018-07-28T22:39:30.124Z,2.00
2018-07-28T22:41:59.385Z,1.73
2018-07-28T22:44:28.547Z,2.30
2018-07-28T22:46:57.851Z,2.10
2018-07-28T22:49:27.405Z,2.07
2018-07-28T22:51:57.351Z,2.53
2018-07-28T22:54:26.534Z,2.23
2018-07-28T22:56:55.724Z,2.10
2018-07-28T22:59:25.037Z,1.80
2018-07-28T23:01:54.220Z,2.03
2018-07-28T23:04:23.419Z,2.10
2018-07-28T23:06:52.764Z,1.73
2018-07-28T23:09:22.792Z,2.20
2018-07-28T23:11:52.112Z,1.82
2018-07-28T23:14:21.920Z,2.07
2018-07-28T23:16:51.503Z,2.17
2018-07-28T23:19:20.822Z,1.95
2018-07-28T23:21:50.074Z,1.77
2018-07-28T23:24:19.469Z,1.67
2018-07-28T23:26:48.722Z,1.87
2018-07-28T23:29:18.034Z,1.90
2018-07-28T23:31:47.150Z,1.90
2018-07-28T23:34:16.603Z,1.70
2018-07-28T23:36:45.824Z,1.53
2018-07-28T23:39:15.595Z,1.60
2018-07-28T23:41:44.937Z,1.57
2018-07-28T23:44:14.589Z,1.70
2018-07-28T23:46:43.848Z,1.40
2018-07-28T23:49:13.088Z,2.40
2018-07-28T23:51:42.457Z,1.63
2018-07-28T23:54:11.797Z,1.70
2018-07-28T23:56:41.112Z,1.57
2018-07-28T23:59:10.338Z,1.80
